EJU7544 LFRS-LPFR
Flight info
| Callsign | EJU7544 |
|---|---|
| Flight time | 1h 45m |
| Altitude | 39000 |
| Route | ERIGA UZ218 FUJTI DCT BAKUP DCT BATAX DCT ELVAR DCT ALAGU |
| Aircraft | A320/M-SDE2E3FGHIJ1RWXY/LB1 |
Departure
| Time | 2026-04-28 10:52 |
|---|---|
| Airport | Nantes Atlantique Airport (LFRS) |
Arrival
| Time | 2026-04-28 12:38 |
|---|---|
| Airport | Faro - Gago Coutinho International Airport (LPFR) |
| Time | Latitude | Longitude | Altitude | Speed | Heading |
|---|---|---|---|---|---|
| 2026-04-28 10:37 | 47.15859 | -1.60283 | 89 ft | 0 kts | 117° |
| 2026-04-28 10:38 | 47.15895 | -1.60256 | 90 ft | 0 kts | 117° |
| 2026-04-28 10:43 | 47.15902 | -1.60275 | 92 ft | 4 kts | 122° |
| 2026-04-28 10:44 | 47.15918 | -1.60306 | 90 ft | 4 kts | 139° |
| 2026-04-28 10:44 | 47.15939 | -1.60325 | 89 ft | 4 kts | 181° |
| 2026-04-28 10:44 | 47.15953 | -1.60321 | 89 ft | 1 kts | 207° |
| 2026-04-28 10:44 | 47.15954 | -1.60319 | 89 ft | 0 kts | 207° |
| 2026-04-28 10:47 | 47.15950 | -1.60323 | 91 ft | 0 kts | 207° |
| 2026-04-28 10:47 | 47.15927 | -1.60340 | 91 ft | 8 kts | 207° |
| 2026-04-28 10:48 | 47.15864 | -1.60388 | 89 ft | 10 kts | 207° |
| 2026-04-28 10:48 | 47.15802 | -1.60435 | 89 ft | 10 kts | 207° |
| 2026-04-28 10:48 | 47.15744 | -1.60479 | 90 ft | 9 kts | 207° |
| 2026-04-28 10:48 | 47.15678 | -1.60530 | 91 ft | 15 kts | 207° |
| 2026-04-28 10:49 | 47.15563 | -1.60618 | 92 ft | 20 kts | 207° |
| 2026-04-28 10:49 | 47.15446 | -1.60708 | 90 ft | 19 kts | 207° |
| 2026-04-28 10:49 | 47.15339 | -1.60789 | 92 ft | 16 kts | 207° |
| 2026-04-28 10:49 | 47.15237 | -1.60866 | 91 ft | 17 kts | 208° |
| 2026-04-28 10:50 | 47.15120 | -1.60956 | 90 ft | 21 kts | 207° |
| 2026-04-28 10:50 | 47.14975 | -1.61067 | 91 ft | 26 kts | 207° |
| 2026-04-28 10:50 | 47.14815 | -1.61188 | 90 ft | 25 kts | 207° |
| 2026-04-28 10:50 | 47.14664 | -1.61303 | 92 ft | 24 kts | 207° |
| 2026-04-28 10:51 | 47.14514 | -1.61415 | 89 ft | 24 kts | 207° |
| 2026-04-28 10:51 | 47.14368 | -1.61524 | 88 ft | 24 kts | 208° |
| 2026-04-28 10:51 | 47.14224 | -1.61641 | 85 ft | 22 kts | 208° |
| 2026-04-28 10:51 | 47.14151 | -1.61772 | 85 ft | 17 kts | 251° |
| 2026-04-28 10:52 | 47.14187 | -1.61920 | 85 ft | 13 kts | 5° |
| 2026-04-28 10:52 | 47.14340 | -1.61817 | 87 ft | 53 kts | 27° |
| 2026-04-28 10:52 | 47.14956 | -1.61349 | 88 ft | 142 kts | 27° |
| 2026-04-28 10:52 | 47.15928 | -1.60704 | 919 ft | 153 kts | 14° |
| 2026-04-28 10:53 | 47.16975 | -1.61017 | 1859 ft | 165 kts | 333° |
| 2026-04-28 10:53 | 47.17812 | -1.62350 | 2390 ft | 195 kts | 303° |
| 2026-04-28 10:53 | 47.18451 | -1.64232 | 2869 ft | 217 kts | 302° |
| 2026-04-28 10:53 | 47.19232 | -1.66277 | 3415 ft | 242 kts | 304° |
| 2026-04-28 10:54 | 47.20126 | -1.68517 | 4021 ft | 264 kts | 304° |
| 2026-04-28 10:54 | 47.21068 | -1.70883 | 4985 ft | 271 kts | 304° |
| 2026-04-28 10:54 | 47.21845 | -1.73453 | 6014 ft | 281 kts | 287° |
| 2026-04-28 10:54 | 47.22007 | -1.76343 | 7009 ft | 289 kts | 265° |
| 2026-04-28 10:55 | 47.21461 | -1.79196 | 8025 ft | 293 kts | 245° |
| 2026-04-28 10:55 | 47.20518 | -1.81847 | 9146 ft | 291 kts | 244° |
| 2026-04-28 10:55 | 47.19587 | -1.84467 | 10315 ft | 288 kts | 245° |
| 2026-04-28 10:55 | 47.18638 | -1.87175 | 10812 ft | 309 kts | 244° |
| 2026-04-28 10:56 | 47.17639 | -1.90038 | 11540 ft | 318 kts | 245° |
| 2026-04-28 10:56 | 47.16635 | -1.92909 | 12438 ft | 321 kts | 245° |
| 2026-04-28 10:56 | 47.15613 | -1.95833 | 13357 ft | 323 kts | 244° |
| 2026-04-28 10:56 | 47.14491 | -1.98712 | 14182 ft | 328 kts | 233° |
| 2026-04-28 10:57 | 47.12955 | -2.01220 | 14939 ft | 331 kts | 230° |
| 2026-04-28 10:57 | 47.11392 | -2.03729 | 15725 ft | 333 kts | 229° |
| 2026-04-28 10:57 | 47.09812 | -2.06235 | 16487 ft | 336 kts | 230° |
| 2026-04-28 10:57 | 47.08216 | -2.08776 | 17177 ft | 340 kts | 230° |
| 2026-04-28 10:58 | 47.06613 | -2.11354 | 17939 ft | 343 kts | 230° |
| 2026-04-28 10:58 | 47.05009 | -2.13963 | 18650 ft | 346 kts | 231° |
| 2026-04-28 10:58 | 47.03401 | -2.16594 | 19329 ft | 347 kts | 231° |
| 2026-04-28 10:58 | 47.01789 | -2.19243 | 20017 ft | 348 kts | 231° |
| 2026-04-28 10:59 | 47.00173 | -2.21897 | 20711 ft | 349 kts | 231° |
| 2026-04-28 10:59 | 46.98552 | -2.24557 | 21401 ft | 350 kts | 231° |
| 2026-04-28 10:59 | 46.96900 | -2.27189 | 22071 ft | 353 kts | 227° |
| 2026-04-28 10:59 | 46.94956 | -2.29433 | 22711 ft | 360 kts | 217° |
| 2026-04-28 11:00 | 46.92736 | -2.31196 | 23265 ft | 365 kts | 212° |
| 2026-04-28 11:00 | 46.90470 | -2.32908 | 23838 ft | 368 kts | 212° |
| 2026-04-28 11:00 | 46.88193 | -2.34635 | 24327 ft | 370 kts | 212° |
| 2026-04-28 11:00 | 46.85908 | -2.36374 | 24835 ft | 371 kts | 213° |
| 2026-04-28 11:01 | 46.83646 | -2.38210 | 25337 ft | 371 kts | 215° |
| 2026-04-28 11:01 | 46.81422 | -2.40142 | 25828 ft | 372 kts | 216° |
| 2026-04-28 11:01 | 46.79209 | -2.42127 | 26314 ft | 374 kts | 216° |
| 2026-04-28 11:01 | 46.76993 | -2.44131 | 26796 ft | 375 kts | 216° |
| 2026-04-28 11:02 | 46.74789 | -2.46113 | 27214 ft | 379 kts | 216° |
| 2026-04-28 11:02 | 46.72533 | -2.48123 | 27661 ft | 381 kts | 215° |
| 2026-04-28 11:02 | 46.70254 | -2.50133 | 28117 ft | 383 kts | 215° |
| 2026-04-28 11:02 | 46.67959 | -2.52136 | 28572 ft | 385 kts | 214° |
| 2026-04-28 11:03 | 46.65654 | -2.54138 | 29006 ft | 387 kts | 214° |
| 2026-04-28 11:03 | 46.63335 | -2.56152 | 29461 ft | 389 kts | 214° |
| 2026-04-28 11:03 | 46.61010 | -2.58176 | 29900 ft | 391 kts | 214° |
| 2026-04-28 11:03 | 46.58672 | -2.60212 | 30305 ft | 393 kts | 214° |
| 2026-04-28 11:04 | 46.56317 | -2.62265 | 30630 ft | 395 kts | 214° |
| 2026-04-28 11:04 | 46.53950 | -2.64325 | 30922 ft | 399 kts | 214° |
| 2026-04-28 11:04 | 46.51561 | -2.66395 | 31176 ft | 401 kts | 215° |
| 2026-04-28 11:04 | 46.49158 | -2.68470 | 31496 ft | 403 kts | 215° |
| 2026-04-28 11:05 | 46.46739 | -2.70554 | 31794 ft | 406 kts | 215° |
| 2026-04-28 11:05 | 46.44311 | -2.72644 | 32192 ft | 405 kts | 215° |
| 2026-04-28 11:05 | 46.41885 | -2.74735 | 32600 ft | 405 kts | 215° |
| 2026-04-28 11:05 | 46.39494 | -2.76798 | 32992 ft | 405 kts | 215° |
| 2026-04-28 11:06 | 46.37075 | -2.78886 | 33372 ft | 405 kts | 216° |
| 2026-04-28 11:06 | 46.34647 | -2.80980 | 33763 ft | 406 kts | 216° |
| 2026-04-28 11:06 | 46.32206 | -2.83084 | 34010 ft | 409 kts | 216° |
| 2026-04-28 11:06 | 46.29763 | -2.85180 | 34404 ft | 407 kts | 215° |
| 2026-04-28 11:07 | 46.27328 | -2.87263 | 34734 ft | 407 kts | 215° |
| 2026-04-28 11:07 | 46.24884 | -2.89359 | 35022 ft | 408 kts | 215° |
| 2026-04-28 11:07 | 46.22447 | -2.91472 | 35286 ft | 409 kts | 216° |
| 2026-04-28 11:07 | 46.20004 | -2.93604 | 35542 ft | 410 kts | 216° |
| 2026-04-28 11:08 | 46.17554 | -2.95753 | 35798 ft | 411 kts | 216° |
| 2026-04-28 11:08 | 46.15105 | -2.97898 | 36057 ft | 412 kts | 215° |
| 2026-04-28 11:08 | 46.12645 | -3.00042 | 36271 ft | 413 kts | 215° |
| 2026-04-28 11:08 | 46.10186 | -3.02173 | 36586 ft | 413 kts | 215° |
| 2026-04-28 11:09 | 46.07718 | -3.04312 | 36880 ft | 413 kts | 214° |
| 2026-04-28 11:09 | 46.05254 | -3.06446 | 37107 ft | 414 kts | 214° |
| 2026-04-28 11:09 | 46.02784 | -3.08581 | 37345 ft | 415 kts | 214° |
| 2026-04-28 11:09 | 46.00338 | -3.10695 | 37571 ft | 415 kts | 214° |
| 2026-04-28 11:10 | 45.97856 | -3.12838 | 37798 ft | 416 kts | 214° |
| 2026-04-28 11:10 | 45.95371 | -3.14984 | 38017 ft | 417 kts | 214° |
| 2026-04-28 11:10 | 45.92878 | -3.17137 | 38215 ft | 419 kts | 214° |
| 2026-04-28 11:10 | 45.90376 | -3.19288 | 38419 ft | 419 kts | 214° |
| 2026-04-28 11:11 | 45.87869 | -3.21437 | 38637 ft | 420 kts | 214° |
| 2026-04-28 11:11 | 45.85358 | -3.23587 | 38834 ft | 421 kts | 214° |
| 2026-04-28 11:11 | 45.82842 | -3.25741 | 39001 ft | 421 kts | 214° |
| 2026-04-28 11:12 | 45.77798 | -3.30063 | 39085 ft | 423 kts | 214° |
| 2026-04-28 11:12 | 45.72747 | -3.34390 | 39084 ft | 423 kts | 214° |
| 2026-04-28 11:13 | 45.67711 | -3.38677 | 39081 ft | 420 kts | 214° |
| 2026-04-28 11:13 | 45.62656 | -3.42967 | 39080 ft | 427 kts | 214° |
| 2026-04-28 11:14 | 45.57492 | -3.47361 | 39079 ft | 437 kts | 214° |
| 2026-04-28 11:14 | 45.52242 | -3.51810 | 39065 ft | 440 kts | 214° |
| 2026-04-28 11:15 | 45.47006 | -3.56225 | 39071 ft | 440 kts | 213° |
| 2026-04-28 11:15 | 45.41742 | -3.60663 | 39073 ft | 440 kts | 214° |
| 2026-04-28 11:16 | 45.36474 | -3.65095 | 39077 ft | 440 kts | 213° |
| 2026-04-28 11:16 | 45.31203 | -3.69526 | 39070 ft | 440 kts | 213° |
| 2026-04-28 11:17 | 45.25928 | -3.73957 | 39084 ft | 440 kts | 214° |
| 2026-04-28 11:17 | 45.20655 | -3.78374 | 39085 ft | 440 kts | 213° |
| 2026-04-28 11:18 | 45.15375 | -3.82768 | 39080 ft | 440 kts | 213° |
| 2026-04-28 11:18 | 45.10106 | -3.87160 | 39082 ft | 439 kts | 213° |
| 2026-04-28 11:19 | 45.04833 | -3.91542 | 39088 ft | 438 kts | 213° |
| 2026-04-28 11:19 | 44.99600 | -3.95871 | 39082 ft | 438 kts | 213° |
| 2026-04-28 11:20 | 44.94343 | -4.00211 | 39079 ft | 438 kts | 213° |
| 2026-04-28 11:20 | 44.89085 | -4.04550 | 39079 ft | 437 kts | 213° |
| 2026-04-28 11:21 | 44.84724 | -4.08147 | 39083 ft | 436 kts | 213° |
| 2026-04-28 11:21 | 44.78607 | -4.13176 | 39083 ft | 435 kts | 213° |
| 2026-04-28 11:22 | 44.73402 | -4.17432 | 39079 ft | 434 kts | 213° |
| 2026-04-28 11:22 | 44.69024 | -4.21013 | 39079 ft | 434 kts | 213° |
| 2026-04-28 11:23 | 44.63808 | -4.25283 | 39081 ft | 434 kts | 213° |
| 2026-04-28 11:23 | 44.58587 | -4.29548 | 39079 ft | 434 kts | 213° |
| 2026-04-28 11:24 | 44.53361 | -4.33791 | 39072 ft | 434 kts | 213° |
| 2026-04-28 11:24 | 44.48141 | -4.38022 | 39067 ft | 433 kts | 212° |
| 2026-04-28 11:25 | 44.42931 | -4.42245 | 39068 ft | 433 kts | 212° |
| 2026-04-28 11:25 | 44.37770 | -4.46472 | 39069 ft | 432 kts | 213° |
| 2026-04-28 11:26 | 44.32643 | -4.50840 | 39060 ft | 431 kts | 214° |
| 2026-04-28 11:26 | 44.27531 | -4.55217 | 39063 ft | 431 kts | 214° |
| 2026-04-28 11:27 | 44.22403 | -4.59564 | 39056 ft | 431 kts | 213° |
| 2026-04-28 11:27 | 44.17268 | -4.63888 | 39056 ft | 431 kts | 213° |
| 2026-04-28 11:28 | 44.12126 | -4.68208 | 39045 ft | 431 kts | 213° |
| 2026-04-28 11:28 | 44.06973 | -4.72529 | 39048 ft | 432 kts | 213° |
| 2026-04-28 11:29 | 44.01820 | -4.76832 | 39049 ft | 432 kts | 213° |
| 2026-04-28 11:29 | 43.96666 | -4.81134 | 39055 ft | 432 kts | 213° |
| 2026-04-28 11:30 | 43.91512 | -4.85437 | 39047 ft | 432 kts | 213° |
| 2026-04-28 11:30 | 43.83807 | -4.91848 | 39054 ft | 432 kts | 213° |
| 2026-04-28 11:31 | 43.78611 | -4.96149 | 39051 ft | 432 kts | 212° |
| 2026-04-28 11:31 | 43.73444 | -5.00411 | 39047 ft | 433 kts | 212° |
| 2026-04-28 11:32 | 43.68308 | -5.04656 | 39036 ft | 433 kts | 212° |
| 2026-04-28 11:32 | 43.63137 | -5.08933 | 39039 ft | 433 kts | 212° |
| 2026-04-28 11:33 | 43.57957 | -5.13200 | 39042 ft | 434 kts | 212° |
| 2026-04-28 11:33 | 43.52760 | -5.17455 | 39046 ft | 434 kts | 212° |
| 2026-04-28 11:34 | 43.47568 | -5.21703 | 39040 ft | 434 kts | 212° |
| 2026-04-28 11:34 | 43.42374 | -5.25955 | 39043 ft | 434 kts | 212° |
| 2026-04-28 11:35 | 43.37170 | -5.30203 | 39042 ft | 435 kts | 212° |
| 2026-04-28 11:35 | 43.31969 | -5.34439 | 39045 ft | 435 kts | 212° |
| 2026-04-28 11:36 | 43.26754 | -5.38676 | 39024 ft | 436 kts | 212° |
| 2026-04-28 11:36 | 43.21530 | -5.42918 | 39024 ft | 436 kts | 212° |
| 2026-04-28 11:37 | 43.16293 | -5.47149 | 39026 ft | 437 kts | 211° |
| 2026-04-28 11:37 | 43.11082 | -5.51354 | 39024 ft | 438 kts | 211° |
| 2026-04-28 11:38 | 43.05834 | -5.55584 | 39030 ft | 438 kts | 211° |
| 2026-04-28 11:38 | 43.00584 | -5.59807 | 39021 ft | 438 kts | 211° |
| 2026-04-28 11:39 | 42.95329 | -5.64035 | 39017 ft | 438 kts | 211° |
| 2026-04-28 11:39 | 42.90074 | -5.68244 | 39015 ft | 438 kts | 211° |
| 2026-04-28 11:40 | 42.84818 | -5.72446 | 39006 ft | 438 kts | 211° |
| 2026-04-28 11:40 | 42.79557 | -5.76640 | 39006 ft | 438 kts | 211° |
| 2026-04-28 11:41 | 42.74289 | -5.80829 | 39006 ft | 438 kts | 211° |
| 2026-04-28 11:41 | 42.69019 | -5.85017 | 39005 ft | 438 kts | 211° |
| 2026-04-28 11:42 | 42.63788 | -5.89176 | 39004 ft | 439 kts | 211° |
| 2026-04-28 11:42 | 42.58479 | -5.93390 | 39003 ft | 439 kts | 211° |
| 2026-04-28 11:43 | 42.53238 | -5.97540 | 38993 ft | 439 kts | 211° |
| 2026-04-28 11:43 | 42.47949 | -6.01703 | 38990 ft | 439 kts | 211° |
| 2026-04-28 11:44 | 42.42660 | -6.05859 | 38983 ft | 439 kts | 211° |
| 2026-04-28 11:44 | 42.37379 | -6.10008 | 38977 ft | 439 kts | 211° |
| 2026-04-28 11:45 | 42.32084 | -6.14165 | 38970 ft | 440 kts | 211° |
| 2026-04-28 11:45 | 42.26794 | -6.18313 | 38972 ft | 440 kts | 211° |
| 2026-04-28 11:46 | 42.21488 | -6.22447 | 38971 ft | 440 kts | 210° |
| 2026-04-28 11:46 | 42.16179 | -6.26568 | 38974 ft | 440 kts | 210° |
| 2026-04-28 11:47 | 42.10877 | -6.30697 | 38971 ft | 440 kts | 210° |
| 2026-04-28 11:47 | 42.05576 | -6.34817 | 38969 ft | 440 kts | 210° |
| 2026-04-28 11:48 | 42.00269 | -6.38929 | 38964 ft | 440 kts | 210° |
| 2026-04-28 11:48 | 41.94966 | -6.43033 | 38960 ft | 440 kts | 210° |
| 2026-04-28 11:49 | 41.89662 | -6.47131 | 38961 ft | 440 kts | 210° |
| 2026-04-28 11:49 | 41.84350 | -6.51222 | 38952 ft | 440 kts | 210° |
| 2026-04-28 11:50 | 41.79033 | -6.55305 | 38940 ft | 440 kts | 210° |
| 2026-04-28 11:50 | 41.73715 | -6.59387 | 38942 ft | 440 kts | 210° |
| 2026-04-28 11:51 | 41.68127 | -6.62656 | 38941 ft | 441 kts | 194° |
| 2026-04-28 11:51 | 41.62101 | -6.64189 | 38936 ft | 441 kts | 191° |
| 2026-04-28 11:52 | 41.56068 | -6.65692 | 38930 ft | 441 kts | 191° |
| 2026-04-28 11:52 | 41.50038 | -6.67207 | 38932 ft | 441 kts | 191° |
| 2026-04-28 11:53 | 41.44044 | -6.68716 | 38931 ft | 441 kts | 191° |
| 2026-04-28 11:53 | 41.38005 | -6.70227 | 38923 ft | 441 kts | 191° |
| 2026-04-28 11:54 | 41.31972 | -6.71729 | 38922 ft | 441 kts | 191° |
| 2026-04-28 11:54 | 41.25945 | -6.73225 | 38924 ft | 440 kts | 191° |
| 2026-04-28 11:55 | 41.19918 | -6.74724 | 38925 ft | 440 kts | 191° |
| 2026-04-28 11:55 | 41.13893 | -6.76213 | 38925 ft | 440 kts | 191° |
| 2026-04-28 11:56 | 41.07872 | -6.77695 | 38926 ft | 440 kts | 191° |
| 2026-04-28 11:56 | 41.01850 | -6.79179 | 38926 ft | 439 kts | 191° |
| 2026-04-28 11:57 | 40.95838 | -6.80655 | 38929 ft | 439 kts | 191° |
| 2026-04-28 11:57 | 40.89902 | -6.82503 | 38923 ft | 438 kts | 202° |
| 2026-04-28 11:58 | 40.84281 | -6.85614 | 38927 ft | 438 kts | 203° |
| 2026-04-28 11:58 | 40.78698 | -6.88727 | 38923 ft | 438 kts | 203° |
| 2026-04-28 11:59 | 40.73075 | -6.91860 | 38927 ft | 439 kts | 203° |
| 2026-04-28 11:59 | 40.67443 | -6.94983 | 38922 ft | 439 kts | 203° |
| 2026-04-28 12:00 | 40.61791 | -6.98032 | 38928 ft | 439 kts | 199° |
| 2026-04-28 12:00 | 40.55983 | -7.00515 | 38927 ft | 439 kts | 197° |
| 2026-04-28 12:01 | 40.50145 | -7.02843 | 38927 ft | 439 kts | 197° |
| 2026-04-28 12:01 | 40.44293 | -7.05168 | 38922 ft | 439 kts | 197° |
| 2026-04-28 12:02 | 40.38452 | -7.07529 | 38928 ft | 439 kts | 198° |
| 2026-04-28 12:02 | 40.32619 | -7.09912 | 38931 ft | 439 kts | 198° |
| 2026-04-28 12:03 | 40.26788 | -7.12288 | 38925 ft | 439 kts | 198° |
| 2026-04-28 12:03 | 40.20949 | -7.14647 | 38919 ft | 439 kts | 197° |
| 2026-04-28 12:04 | 40.15108 | -7.16998 | 38928 ft | 439 kts | 197° |
| 2026-04-28 12:04 | 40.09300 | -7.19329 | 38926 ft | 439 kts | 197° |
| 2026-04-28 12:05 | 40.03462 | -7.21673 | 38919 ft | 439 kts | 197° |
| 2026-04-28 12:05 | 39.97626 | -7.24018 | 38914 ft | 439 kts | 197° |
| 2026-04-28 12:06 | 39.92732 | -7.25977 | 38913 ft | 439 kts | 197° |
| 2026-04-28 12:06 | 39.86883 | -7.28317 | 38910 ft | 439 kts | 197° |
| 2026-04-28 12:07 | 39.81039 | -7.30653 | 38913 ft | 440 kts | 197° |
| 2026-04-28 12:07 | 39.75217 | -7.32975 | 38907 ft | 440 kts | 197° |
| 2026-04-28 12:08 | 39.69364 | -7.35298 | 38904 ft | 440 kts | 197° |
| 2026-04-28 12:08 | 39.63509 | -7.37622 | 38901 ft | 440 kts | 197° |
| 2026-04-28 12:09 | 39.57657 | -7.39940 | 38911 ft | 440 kts | 197° |
| 2026-04-28 12:09 | 39.51801 | -7.42259 | 38915 ft | 439 kts | 197° |
| 2026-04-28 12:10 | 39.45960 | -7.44571 | 38919 ft | 438 kts | 197° |
| 2026-04-28 12:10 | 39.40128 | -7.46872 | 38921 ft | 438 kts | 197° |
| 2026-04-28 12:11 | 39.34303 | -7.49167 | 38920 ft | 437 kts | 197° |
| 2026-04-28 12:11 | 39.28473 | -7.51447 | 38910 ft | 438 kts | 197° |
| 2026-04-28 12:12 | 39.22634 | -7.53729 | 38906 ft | 438 kts | 197° |
| 2026-04-28 12:12 | 39.16801 | -7.56017 | 38907 ft | 438 kts | 197° |
| 2026-04-28 12:13 | 39.10992 | -7.58288 | 38904 ft | 439 kts | 197° |
| 2026-04-28 12:13 | 39.05144 | -7.60567 | 38899 ft | 439 kts | 197° |
| 2026-04-28 12:14 | 38.99296 | -7.62849 | 38896 ft | 439 kts | 197° |
| 2026-04-28 12:14 | 38.93437 | -7.65125 | 38899 ft | 440 kts | 197° |
| 2026-04-28 12:15 | 38.87580 | -7.67400 | 38898 ft | 440 kts | 197° |
| 2026-04-28 12:15 | 38.81722 | -7.69676 | 38903 ft | 440 kts | 197° |
| 2026-04-28 12:16 | 38.75866 | -7.71940 | 38902 ft | 440 kts | 197° |
| 2026-04-28 12:16 | 38.70006 | -7.74194 | 38906 ft | 439 kts | 197° |
| 2026-04-28 12:17 | 38.64158 | -7.76446 | 38900 ft | 436 kts | 197° |
| 2026-04-28 12:17 | 38.61246 | -7.77570 | 38607 ft | 437 kts | 197° |
| 2026-04-28 12:17 | 38.58349 | -7.78688 | 38335 ft | 434 kts | 197° |
| 2026-04-28 12:18 | 38.55465 | -7.79798 | 38061 ft | 433 kts | 197° |
| 2026-04-28 12:18 | 38.52580 | -7.80907 | 37776 ft | 432 kts | 197° |
| 2026-04-28 12:18 | 38.49701 | -7.82012 | 37507 ft | 432 kts | 197° |
| 2026-04-28 12:18 | 38.46817 | -7.83116 | 37181 ft | 432 kts | 197° |
| 2026-04-28 12:19 | 38.43944 | -7.84213 | 36442 ft | 432 kts | 197° |
| 2026-04-28 12:19 | 38.41058 | -7.85318 | 35632 ft | 433 kts | 197° |
| 2026-04-28 12:19 | 38.38203 | -7.86414 | 34760 ft | 436 kts | 197° |
| 2026-04-28 12:19 | 38.35288 | -7.87529 | 33923 ft | 438 kts | 197° |
| 2026-04-28 12:20 | 38.32363 | -7.88644 | 32859 ft | 441 kts | 197° |
| 2026-04-28 12:20 | 38.29417 | -7.89768 | 31772 ft | 444 kts | 197° |
| 2026-04-28 12:20 | 38.26444 | -7.90906 | 30714 ft | 447 kts | 198° |
| 2026-04-28 12:20 | 38.23457 | -7.92050 | 29519 ft | 451 kts | 198° |
| 2026-04-28 12:21 | 38.20436 | -7.93203 | 28261 ft | 454 kts | 197° |
| 2026-04-28 12:21 | 38.17436 | -7.94341 | 27620 ft | 441 kts | 197° |
| 2026-04-28 12:21 | 38.14563 | -7.95425 | 26897 ft | 423 kts | 197° |
| 2026-04-28 12:21 | 38.11750 | -7.96473 | 26068 ft | 421 kts | 196° |
| 2026-04-28 12:22 | 38.08934 | -7.97408 | 25197 ft | 411 kts | 194° |
| 2026-04-28 12:22 | 38.06184 | -7.98217 | 24550 ft | 403 kts | 193° |
| 2026-04-28 12:22 | 38.03446 | -7.98968 | 23879 ft | 401 kts | 192° |
| 2026-04-28 12:22 | 38.00724 | -7.99701 | 23176 ft | 401 kts | 192° |
| 2026-04-28 12:23 | 37.97985 | -8.00449 | 22511 ft | 402 kts | 192° |
| 2026-04-28 12:23 | 37.95266 | -8.01214 | 21922 ft | 399 kts | 193° |
| 2026-04-28 12:23 | 37.92567 | -8.01992 | 21337 ft | 396 kts | 193° |
| 2026-04-28 12:23 | 37.89891 | -8.02771 | 20776 ft | 393 kts | 193° |
| 2026-04-28 12:24 | 37.87241 | -8.03547 | 20250 ft | 389 kts | 193° |
| 2026-04-28 12:24 | 37.84641 | -8.04307 | 19735 ft | 386 kts | 193° |
| 2026-04-28 12:24 | 37.82036 | -8.05065 | 19217 ft | 383 kts | 193° |
| 2026-04-28 12:24 | 37.79453 | -8.05814 | 18718 ft | 379 kts | 193° |
| 2026-04-28 12:25 | 37.76887 | -8.06556 | 18183 ft | 376 kts | 193° |
| 2026-04-28 12:25 | 37.74340 | -8.07289 | 17622 ft | 373 kts | 193° |
| 2026-04-28 12:25 | 37.71820 | -8.08012 | 17093 ft | 370 kts | 193° |
| 2026-04-28 12:25 | 37.69319 | -8.08729 | 16562 ft | 367 kts | 193° |
| 2026-04-28 12:26 | 37.66841 | -8.09439 | 16003 ft | 364 kts | 193° |
| 2026-04-28 12:26 | 37.64387 | -8.10145 | 15477 ft | 361 kts | 193° |
| 2026-04-28 12:26 | 37.61947 | -8.10851 | 14922 ft | 358 kts | 193° |
| 2026-04-28 12:26 | 37.59530 | -8.11550 | 14366 ft | 355 kts | 193° |
| 2026-04-28 12:27 | 37.57123 | -8.12244 | 13807 ft | 354 kts | 193° |
| 2026-04-28 12:27 | 37.54731 | -8.12933 | 13197 ft | 351 kts | 193° |
| 2026-04-28 12:27 | 37.52358 | -8.13617 | 12635 ft | 348 kts | 193° |
| 2026-04-28 12:27 | 37.50010 | -8.14293 | 12062 ft | 344 kts | 193° |
| 2026-04-28 12:28 | 37.47684 | -8.14961 | 11484 ft | 341 kts | 193° |
| 2026-04-28 12:28 | 37.45377 | -8.15622 | 10911 ft | 339 kts | 193° |
| 2026-04-28 12:28 | 37.43094 | -8.16276 | 10541 ft | 330 kts | 193° |
| 2026-04-28 12:28 | 37.40910 | -8.16902 | 10425 ft | 315 kts | 193° |
| 2026-04-28 12:29 | 37.36817 | -8.18063 | 10183 ft | 289 kts | 193° |
| 2026-04-28 12:29 | 37.34886 | -8.18611 | 10037 ft | 280 kts | 194° |
| 2026-04-28 12:29 | 37.32999 | -8.19149 | 9978 ft | 277 kts | 193° |
| 2026-04-28 12:30 | 37.31120 | -8.19687 | 9875 ft | 276 kts | 193° |
| 2026-04-28 12:30 | 37.29209 | -8.20114 | 9198 ft | 283 kts | 182° |
| 2026-04-28 12:30 | 37.27244 | -8.19955 | 8433 ft | 282 kts | 175° |
| 2026-04-28 12:30 | 37.25317 | -8.19741 | 7693 ft | 281 kts | 175° |
| 2026-04-28 12:31 | 37.23370 | -8.19522 | 6980 ft | 279 kts | 174° |
| 2026-04-28 12:31 | 37.21445 | -8.19303 | 6466 ft | 278 kts | 173° |
| 2026-04-28 12:31 | 37.19509 | -8.19083 | 6022 ft | 276 kts | 173° |
| 2026-04-28 12:31 | 37.17651 | -8.18876 | 5629 ft | 261 kts | 174° |
| 2026-04-28 12:32 | 37.15888 | -8.18683 | 5264 ft | 247 kts | 171° |
| 2026-04-28 12:32 | 37.14232 | -8.18499 | 4995 ft | 231 kts | 171° |
| 2026-04-28 12:32 | 37.12670 | -8.18326 | 4697 ft | 220 kts | 171° |
| 2026-04-28 12:32 | 37.11171 | -8.18161 | 4386 ft | 212 kts | 171° |
| 2026-04-28 12:33 | 37.09726 | -8.18000 | 4082 ft | 206 kts | 172° |
| 2026-04-28 12:33 | 37.08317 | -8.17843 | 3788 ft | 201 kts | 172° |
| 2026-04-28 12:33 | 37.06944 | -8.17691 | 3500 ft | 195 kts | 170° |
| 2026-04-28 12:33 | 37.05615 | -8.17520 | 3240 ft | 189 kts | 164° |
| 2026-04-28 12:34 | 37.04536 | -8.16744 | 2891 ft | 177 kts | 127° |
| 2026-04-28 12:34 | 37.04075 | -8.15340 | 2653 ft | 174 kts | 99° |
| 2026-04-28 12:34 | 37.03876 | -8.13885 | 2429 ft | 168 kts | 100° |
| 2026-04-28 12:34 | 37.03679 | -8.12458 | 2213 ft | 166 kts | 100° |
| 2026-04-28 12:35 | 37.03483 | -8.11053 | 1987 ft | 161 kts | 100° |
| 2026-04-28 12:35 | 37.03299 | -8.09742 | 1792 ft | 148 kts | 100° |
| 2026-04-28 12:35 | 37.03124 | -8.08497 | 1603 ft | 142 kts | 100° |
| 2026-04-28 12:35 | 37.02957 | -8.07313 | 1424 ft | 134 kts | 100° |
| 2026-04-28 12:36 | 37.02803 | -8.06220 | 1248 ft | 126 kts | 100° |
| 2026-04-28 12:36 | 37.02651 | -8.05138 | 1072 ft | 127 kts | 99° |
| 2026-04-28 12:36 | 37.02496 | -8.04044 | 915 ft | 125 kts | 98° |
| 2026-04-28 12:36 | 37.02345 | -8.02970 | 752 ft | 126 kts | 99° |
| 2026-04-28 12:37 | 37.02192 | -8.01890 | 583 ft | 126 kts | 99° |
| 2026-04-28 12:37 | 37.02041 | -8.00820 | 416 ft | 126 kts | 101° |
| 2026-04-28 12:37 | 37.01888 | -7.99738 | 268 ft | 126 kts | 98° |
| 2026-04-28 12:37 | 37.01735 | -7.98669 | 114 ft | 123 kts | 98° |
| 2026-04-28 12:38 | 37.01590 | -7.97651 | 21 ft | 107 kts | 98° |
| 2026-04-28 12:38 | 37.01508 | -7.97035 | 21 ft | 50 kts | 99° |
| 2026-04-28 12:38 | 37.01456 | -7.96663 | 23 ft | 38 kts | 100° |
| 2026-04-28 12:38 | 37.01429 | -7.96404 | 22 ft | 28 kts | 88° |
| 2026-04-28 12:39 | 37.01469 | -7.96180 | 21 ft | 17 kts | 68° |
| 2026-04-28 12:39 | 37.01536 | -7.96109 | 20 ft | 8 kts | 5° |
| 2026-04-28 12:39 | 37.01562 | -7.96142 | 21 ft | 7 kts | 285° |
| 2026-04-28 12:39 | 37.01575 | -7.96227 | 20 ft | 13 kts | 280° |
| 2026-04-28 12:40 | 37.01595 | -7.96359 | 20 ft | 18 kts | 279° |
| 2026-04-28 12:40 | 37.01620 | -7.96539 | 20 ft | 24 kts | 279° |
| 2026-04-28 12:40 | 37.01646 | -7.96724 | 22 ft | 17 kts | 280° |
| 2026-04-28 12:40 | 37.01666 | -7.96861 | 20 ft | 14 kts | 283° |
| 2026-04-28 12:41 | 37.01738 | -7.96900 | 22 ft | 13 kts | 10° |
| 2026-04-28 12:41 | 37.01824 | -7.96866 | 20 ft | 14 kts | 50° |
| 2026-04-28 12:41 | 37.01831 | -7.96794 | 22 ft | 3 kts | 58° |
| 2026-04-28 12:41 | 37.01854 | -7.96782 | 20 ft | 6 kts | 10° |
| 2026-04-28 12:42 | 37.01892 | -7.96776 | 20 ft | 2 kts | 8° |
| 2026-04-28 12:42 | 37.01905 | -7.96773 | 20 ft | 2 kts | 9° |
| 2026-04-28 12:42 | 37.01911 | -7.96772 | 20 ft | 0 kts | 9° |